Loyal, WI

7:55 AM CDT on August 27, 2014 (GMT -0500)
Marshfield Municipal | Change Station
CLOSE
Current Station
Airport
Location: Marshfield,
Elevation: 1276 ft
Nearby Weather Stations

Elev 1276 ft 44.64 °N, 90.19 °W | Updated 1 hour ago

Partly Cloudy
Partly Cloudy
56 °F
Feels Like 56 °F
N
0
Wind Variable Wind from North

Today
High -- | Low -- °F
--% Chance of Precip.
Yesterday
High -- | Low -- °F
Precip. -- in
6:18 AM 7:47 PM
Waxing Crescent, 3% visible
Pressure 30.19 in
Visibility 10.0 miles
Clouds Few 8500 ft
Dew Point 54 °F
Humidity 93%
Rainfall 0.00 in
Snow Depth Not available.
UV 0 out of 12
Pollen 8.90 out of 12
Air Quality Not available.
Flu Activity Not available.
METAR KMFI 271154Z AUTO 00000KT 10SM FEW085 13/12 A3018 RMK AO2 SLP221 60000 T01330122 10167 20128 53001

More Conditions Fewer Conditions

Pressure 30.19 in
Visibility 10.0 miles
Clouds Few 8500 ft
Dew Point 54 °F
Humidity 93%
Rainfall 0.00 in
Snow Depth Not available.
UV 0 out of 12
Pollen 8.90 out of 12
Air Quality Not available.
Flu Activity Not available.
METAR KMFI 271154Z AUTO 00000KT 10SM FEW085 13/12 A3018 RMK AO2 SLP221 60000 T01330122 10167 20128 53001

More Conditions Fewer Conditions

10-Day Weather Forecast

Almanac

Astronomy

Aug. 27, 2014 Rise Set
Actual Time 6:18 AM CDT 7:47 PM CDT
Civil Twilight 5:47 AM CDT 8:18 PM CDT
Nautical Twilight 5:10 AM CDT 8:54 PM CDT
Astronomical Twilight 4:31 AM CDT 9:34 PM CDT
Moon 8:21 AM CDT 8:32 PM CDT
Length of Visible Light 14h 30m
Length of Day
13h 29m
Tomorrow will be 2m 57s shorter.
Waxing Crescent, 3% of the Moon is Illuminated
Today
Waxing Crescent
Sep 2
First Quarter
Sep 8
Full
Sep 15
Last Quarter
Sep 24
New

Today's Extremes

State Highs State Lows

Community

WunderPhotos

Upload Photos

1,747,676 photos uploaded!

Nearby

Snow Depth

Station Depth Elevation
No new snow has been reported.

Earthquake Activity

City Distance Mag. Time & Date
No recent earthquake activity has been reported nearby.
Minimum magnitude displayed is 2.5.

Coastal Water Temperatures

Place Temperature
No Stations Reporting

Nearby Weather Stations